Flight Track Log - Related Links

Times and Time Zones

All times are in EDT time to prevent confusion due to time zone crossing. See the AWE226 flight status page for this flight to view local times or setup timezone preferences in your user account.

Time Position Orientation Groundspeed Altitude Reporting Facility
EDT Latitude Longitude Course Direction KTS MPH feet Rate Location/Type
Thu 03:14:13 AM 33.4333 -112.0333 292° West 192 221 1,900  Level Phoenix TRACON
Thu 03:14:55 AM 33.4500 -112.0833 292° West 181 208 3,000 1,412 Climbing Phoenix TRACON
Thu 03:15:55 AM 33.4500 -112.1500 270° West 238 274 4,300 1,667 Climbing Phoenix TRACON
Thu 03:17:19 AM 33.5153 -112.1889 334° Northwest 276 318 7,000 1,792 Climbing Albuquerque Center
Thu 03:18:19 AM 33.5939 -112.1642 15° North 296 341 8,600 1,686 Climbing Albuquerque Center
Thu 03:19:20 AM 33.6278 -112.0711 66° East 311 358 10,400 1,537 Climbing Albuquerque Center
Thu 03:20:20 AM 33.6606 -111.9669 69° East 334 384 11,700 1,150 Climbing Albuquerque Center
Thu 03:21:20 AM 33.6956 -111.8472 71° East 383 441 12,700 1,388 Climbing Albuquerque Center
Thu 03:22:21 AM 33.7397 -111.6956 71° East 405 466 14,500 1,587 Climbing Albuquerque Center
Thu 03:23:21 AM 33.7775 -111.5644 71° East 419 482 15,900 1,500 Climbing Albuquerque Center
Thu 03:24:21 AM 33.8192 -111.4303 69° East 433 498 17,500 1,736 Climbing Albuquerque Center
Thu 03:25:22 AM 33.8767 -111.3039 61° Northeast 433 498 19,400 1,636 Climbing Albuquerque Center
Thu 03:26:22 AM 33.9333 -111.1725 63° Northeast 443 510 20,800 1,339 Climbing Albuquerque Center
Thu 03:27:23 AM 33.9906 -111.0411 62° Northeast 446 513 22,100 1,190 Climbing Albuquerque Center
Thu 03:28:23 AM 34.0483 -110.9053 63° Northeast 452 520 23,200 1,000 Climbing Albuquerque Center
Thu 03:29:23 AM 34.1089 -110.7675 62° Northeast 461 531 24,100 1,041 Climbing Albuquerque Center
Thu 03:30:24 AM 34.1714 -110.6208 63° Northeast 467 537 25,300 1,140 Climbing Albuquerque Center
Thu 03:31:24 AM 34.2336 -110.4786 62° Northeast 476 548 26,400 1,000 Climbing Albuquerque Center
Thu 03:32:24 AM 34.2969 -110.3281 63° Northeast 481 554 27,300 744 Climbing Albuquerque Center
Thu 03:33:25 AM 34.3575 -110.1878 62° Northeast 489 563 27,900 645 Climbing Albuquerque Center
Thu 03:34:25 AM 34.4178 -110.0456 63° Northeast 493 567 28,600 950 Climbing Albuquerque Center
Thu 03:35:25 AM 34.4889 -109.8753 63° Northeast 503 579 29,800 992 Climbing Albuquerque Center
Thu 03:36:26 AM 34.5494 -109.7317 63° Northeast 502 578 30,600 942 Climbing Albuquerque Center
Thu 03:37:26 AM 34.6092 -109.5883 63° Northeast 499 574 31,700 1,000 Climbing Albuquerque Center
Thu 03:38:26 AM 34.6775 -109.4225 63° Northeast 496 571 32,600 793 Climbing Albuquerque Center
Thu 03:39:27 AM 34.7367 -109.2811 63° Northeast 493 567 33,300 744 Climbing Albuquerque Center
Thu 03:40:27 AM 34.7942 -109.1403 64° Northeast 490 564 34,100 750 Climbing Albuquerque Center
Thu 03:41:27 AM 34.8614 -108.9775 63° Northeast 485 558 34,800 446 Climbing Albuquerque Center
Thu 03:42:28 AM 34.9189 -108.8367 63° Northeast 486 559 35,000 99 Climbing Albuquerque Center
Thu 03:43:28 AM 34.9753 -108.6969 64° Northeast 484 557 35,000  Level Albuquerque Center
Thu 03:44:28 AM 35.0419 -108.5331 64° Northeast 484 557 35,000  Level Albuquerque Center
Thu 03:45:29 AM 35.0997 -108.3908 64° Northeast 487 560 35,000  Level Albuquerque Center
Thu 03:46:29 AM 35.1564 -108.2481 64° Northeast 489 563 35,000  Level Albuquerque Center
Thu 03:47:29 AM 35.2142 -108.1058 64° Northeast 489 563 35,000 -50 Level Albuquerque Center
Thu 03:48:30 AM 35.2803 -107.9381 64° Northeast 492 566 34,900  Descending Albuquerque Center
Thu 03:49:30 AM 35.3378 -107.7947 64° Northeast 492 566 35,000 50 Climbing Albuquerque Center
Thu 03:50:31 AM 35.3944 -107.6483 65° Northeast 495 570 35,000  Level Albuquerque Center
Thu 03:51:31 AM 35.4614 -107.4794 64° Northeast 495 570 35,000  Level Albuquerque Center
Thu 03:52:31 AM 35.5181 -107.3319 65° Northeast 498 573 35,000  Level Albuquerque Center
Thu 03:53:32 AM 35.5783 -107.1772 64° Northeast 500 575 35,000 50 Level Albuquerque Center
Thu 03:54:32 AM 35.6394 -107.0192 65° Northeast 505 581 35,100  Climbing Albuquerque Center
Thu 03:55:32 AM 35.7003 -106.8622 64° Northeast 504 580 35,000 -50 Descending Albuquerque Center
Thu 03:56:33 AM 35.7567 -106.7142 65° Northeast 501 577 35,000  Level Albuquerque Center
Thu 03:57:33 AM 35.8153 -106.5650 64° Northeast 503 579 35,000  Level Albuquerque Center
Thu 03:58:33 AM 35.8808 -106.3936 65° Northeast 498 573 35,000  Level Albuquerque Center
Thu 03:59:34 AM 35.9361 -106.2447 65° Northeast 492 566 35,000 -50 Level Albuquerque Center
Thu 04:00:34 AM 35.9919 -106.0892 66° East 493 567 34,900 50 Descending Albuquerque Center
Thu 04:01:34 AM 36.0497 -105.9358 65° Northeast 494 568 35,100 50 Climbing Albuquerque Center
Thu 04:02:35 AM 36.1053 -105.7850 65° Northeast 486 559 35,000 -50 Descending Albuquerque Center
Thu 04:03:35 AM 36.1608 -105.6350 65° Northeast 481 554 35,000  Level Albuquerque Center
Thu 04:04:35 AM 36.2106 -105.4969 66° East 476 548 35,000  Level Albuquerque Center
Thu 04:05:35 AM 36.2664 -105.3464 65° Northeast 475 547 35,000  Level Albuquerque Center
Thu 04:06:36 AM 36.3211 -105.1936 66° East 477 549 35,000  Level Albuquerque Center
Thu 04:07:36 AM 36.3758 -105.0433 66° East 475 547 35,000  Level Albuquerque Center
Thu 04:08:36 AM 36.4303 -104.8914 66° East 475 547 35,000  Level Albuquerque Center
Thu 04:09:37 AM 36.4850 -104.7389 66° East 477 549 35,000  Level Albuquerque Center
Thu 04:10:37 AM 36.5394 -104.5872 66° East 477 549 35,000  Level Albuquerque Center
Thu 04:11:37 AM 36.5936 -104.4350 66° East 476 548 35,000  Level Albuquerque Center
Thu 04:12:37 AM 36.6475 -104.2833 66° East 475 547 35,000  Level Albuquerque Center
Thu 04:13:38 AM 36.7047 -104.1222 66° East 476 548 35,000  Level Albuquerque Center
Thu 04:14:38 AM 36.7553 -103.9775 66° East 476 548 35,000  Level Albuquerque Center
Thu 04:15:38 AM 36.8061 -103.8322 66° East 479 551 35,000  Level Albuquerque Center
Thu 04:16:39 AM 36.8650 -103.6611 67° East 482 555 35,000  Level Albuquerque Center
Thu 04:17:39 AM 36.9158 -103.5139 67° East 483 556 35,000  Level Albuquerque Center
Thu 04:18:39 AM 36.9656 -103.3689 67° East 479 551 35,000  Level Albuquerque Center
Thu 04:19:39 AM 37.0233 -103.1989 67° East 478 550 35,000  Level Albuquerque Center
Thu 04:20:40 AM 37.0733 -103.0517 67° East 480 552 35,000  Level Albuquerque Center
Thu 04:21:40 AM 37.1225 -102.9056 67° East 478 550 35,000  Level Albuquerque Center
Thu 04:22:40 AM 37.1722 -102.7583 67° East 480 552 35,000  Level Albuquerque Center
Thu 04:23:40 AM 37.2297 -102.5856 67° East 481 554 35,000  Level Albuquerque Center
Thu 04:24:40 AM 37.2789 -102.4350 68° East 484 557 35,000  Level Albuquerque Center
Thu 04:25:25 AM 37.3206 -102.3083 67° East 486 559 35,000  Level Kansas City Center
Thu 04:26:26 AM 37.3708 -102.1575 67° East 488 562 35,000  Level Kansas City Center
Thu 04:27:26 AM 37.4206 -102.0069 67° East 487 560 35,000  Level Kansas City Center
Thu 04:28:27 AM 37.4775 -101.8319 68° East 486 559 35,000  Level Kansas City Center
Thu 04:29:27 AM 37.5256 -101.6811 68° East 486 559 35,000  Level Kansas City Center
Thu 04:30:28 AM 37.5742 -101.5317 68° East 482 555 35,000  Level Kansas City Center
Thu 04:31:29 AM 37.6303 -101.3544 68° East 487 560 35,000  Level Kansas City Center
Thu 04:32:29 AM 37.6789 -101.2039 68° East 484 557 35,000  Level Kansas City Center
Thu 04:33:30 AM 37.7283 -101.0486 68° East 486 559 35,000  Level Kansas City Center
Thu 04:34:31 AM 37.7781 -100.8950 68° East 487 560 35,000 149 Level Kansas City Center
Thu 04:35:31 AM 37.8275 -100.7386 68° East 492 566 35,300 595 Climbing Kansas City Center
Thu 04:36:32 AM 37.8819 -100.5647 68° East 479 551 36,200 738 Climbing Kansas City Center
Thu 04:37:33 AM 37.9278 -100.4167 69° East 473 544 36,800 397 Climbing Kansas City Center
Thu 04:38:33 AM 37.9728 -100.2683 69° East 470 541 37,000 99 Climbing Kansas City Center
Thu 04:39:34 AM 38.0272 -100.0919 69° East 479 551 37,000  Level Kansas City Center
Thu 04:40:35 AM 38.0719 -99.9406 69° East 479 551 37,000  Level Kansas City Center
Thu 04:41:35 AM 38.1183 -99.7867 69° East 483 556 37,000  Level Kansas City Center
Thu 04:42:36 AM 38.1714 -99.6081 69° East 485 558 37,000  Level Kansas City Center
Thu 04:43:36 AM 38.2172 -99.4544 69° East 482 555 37,000  Level Kansas City Center
Thu 04:44:37 AM 38.2650 -99.2961 69° East 479 551 37,000  Level Kansas City Center
Thu 04:45:38 AM 38.3119 -99.1378 69° East 478 550 37,000  Level Kansas City Center
Thu 04:46:38 AM 38.3578 -98.9817 69° East 473 544 37,000  Level Kansas City Center
Thu 04:47:39 AM 38.4056 -98.8231 69° East 475 547 37,000  Level Kansas City Center
Thu 04:48:40 AM 38.4519 -98.6633 70° East 479 551 37,000  Level Kansas City Center
Thu 04:49:40 AM 38.4981 -98.5047 70° East 477 549 37,000  Level Kansas City Center
Thu 04:50:41 AM 38.5433 -98.3447 70° East 476 548 37,000  Level Kansas City Center
Thu 04:51:41 AM 38.5886 -98.1833 70° East 478 550 37,000  Level Kansas City Center
Thu 04:52:42 AM 38.6353 -98.0231 70° East 479 551 37,000  Level Kansas City Center
Thu 04:53:42 AM 38.6806 -97.8622 70° East 480 552 37,000  Level Kansas City Center
Thu 04:54:43 AM 38.7275 -97.6944 70° East 482 555 37,000  Level Kansas City Center
Thu 04:55:44 AM 38.7717 -97.5386 70° East 485 558 37,000  Level Kansas City Center
Thu 04:56:44 AM 38.8169 -97.3717 71° East 488 562 37,000  Level Kansas City Center
Thu 04:57:45 AM 38.8622 -97.2092 70° East 484 557 37,000  Level Kansas City Center
Thu 04:58:46 AM 38.9064 -97.0464 71° East 482 555 37,000  Level Kansas City Center
Thu 04:59:46 AM 38.9492 -96.8858 71° East 477 549 37,000  Level Kansas City Center
Thu 05:00:47 AM 38.9994 -96.7108 70° East 482 555 37,000  Level Kansas City Center
Thu 05:01:47 AM 39.0400 -96.5550 71° East 480 552 37,000  Level Kansas City Center
Thu 05:02:48 AM 39.0794 -96.3994 72° East 479 551 37,000  Level Kansas City Center
Thu 05:03:49 AM 39.1269 -96.2192 71° East 475 547 37,000  Level Kansas City Center
Thu 05:04:49 AM 39.1681 -96.0625 71° East 481 554 37,000  Level Kansas City Center
Thu 05:05:50 AM 39.2094 -95.9067 71° East 480 552 37,000  Level Kansas City Center
Thu 05:06:50 AM 39.2569 -95.7242 71° East 478 550 37,000  Level Kansas City Center
Thu 05:07:51 AM 39.2972 -95.5675 72° East 479 551 37,000  Level Kansas City Center
Thu 05:08:51 AM 39.3411 -95.3953 72° East 479 551 37,000  Level Kansas City Center
Thu 05:09:52 AM 39.3836 -95.2314 71° East 481 554 37,000  Level Kansas City Center
Thu 05:10:52 AM 39.4258 -95.0633 72° East 479 551 37,000  Level Kansas City Center
Thu 05:11:53 AM 39.4656 -94.9047 72° East 481 554 37,000  Level Kansas City Center
Thu 05:12:54 AM 39.5056 -94.7478 72° East 480 552 37,000  Level Kansas City Center
Thu 05:13:54 AM 39.5444 -94.5889 72° East 482 555 37,000  Level Kansas City Center
Thu 05:14:55 AM 39.5892 -94.4047 72° East 480 552 37,000  Level Kansas City Center
Thu 05:15:55 AM 39.6272 -94.2489 72° East 475 547 37,000  Level Kansas City Center
Thu 05:16:56 AM 39.6650 -94.0942 72° East 471 542 37,000  Level Kansas City Center
Thu 05:17:56 AM 39.7086 -93.9122 73° East 471 542 37,000  Level Kansas City Center
Thu 05:18:57 AM 39.7461 -93.7581 72° East 470 541 37,000  Level Kansas City Center
Thu 05:19:58 AM 39.7808 -93.6050 74° East 476 548 37,000  Level Kansas City Center
Thu 05:20:58 AM 39.8197 -93.4442 72° East 472 543 37,000  Level Kansas City Center
Thu 05:21:59 AM 39.8572 -93.2808 73° East 476 548 37,000  Level Kansas City Center
Thu 05:22:59 AM 39.8964 -93.1189 72° East 475 547 37,000  Level Kansas City Center
Thu 05:24:00 AM 39.9408 -92.9208 74° East 479 551 37,000  Level Kansas City Center
Thu 05:25:00 AM 39.9786 -92.7567 73° East 482 555 37,000  Level Kansas City Center
Thu 05:26:01 AM 40.0153 -92.5914 74° East 485 558 37,000  Level Kansas City Center
Thu 05:27:01 AM 40.0531 -92.4278 73° East 483 556 37,000  Level Kansas City Center
Thu 05:28:02 AM 40.0894 -92.2656 74° East 479 551 37,000  Level Kansas City Center
Thu 05:29:02 AM 40.1250 -92.1022 74° East 477 549 37,000  Level Kansas City Center
Thu 05:30:03 AM 40.1622 -91.9411 73° East 472 543 37,000  Level Kansas City Center
Thu 05:31:03 AM 40.1967 -91.7792 74° East 469 540 37,000  Level Kansas City Center
Thu 05:32:04 AM 40.2392 -91.5842 74° East 469 540 37,000  Level Kansas City Center
Thu 05:33:05 AM 40.2733 -91.4200 75° East 471 542 37,000  Level Kansas City Center
Thu 05:34:05 AM 40.3097 -91.2567 74° East 471 542 37,000  Level Kansas City Center
Thu 05:35:05 AM 40.3444 -91.0925 74° East 471 542 37,000  Level Kansas City Center
Thu 05:36:06 AM 40.3786 -90.9267 75° East 471 542 37,000  Level Kansas City Center
Thu 05:37:06 AM 40.4136 -90.7608 74° East 471 542 37,000  Level Kansas City Center
Thu 05:38:07 AM 40.4481 -90.5958 75° East 470 541 37,000  Level Kansas City Center
Thu 05:39:07 AM 40.4822 -90.4300 75° East 471 542 37,000  Level Kansas City Center
Thu 05:40:08 AM 40.5164 -90.2625 75° East 474 545 37,000  Level Kansas City Center
Thu 05:41:08 AM 40.5472 -90.1044 76° East 473 544 37,000  Level Kansas City Center
Thu 05:42:09 AM 40.5811 -89.9372 75° East 476 548 37,000  Level Kansas City Center
Thu 05:43:09 AM 40.6147 -89.7639 76° East 479 551 37,000  Level Kansas City Center
Thu 05:44:09 AM 40.6483 -89.5936 75° East 482 555 37,000  Level Kansas City Center
Thu 05:45:10 AM 40.6806 -89.4314 75° East 480 552 37,000  Level Kansas City Center
Thu 05:46:10 AM 40.7142 -89.2642 75° East 476 548 37,000  Level Kansas City Center
Thu 05:47:22 AM 40.7525 -89.0600 76° East 480 552 37,000  Level Chicago Center
Thu 05:48:22 AM 40.7853 -88.8928 75° East 475 547 37,000  Level Chicago Center
Thu 05:49:23 AM 40.8211 -88.6961 76° East 466 536 37,000  Level Chicago Center
Thu 05:50:23 AM 40.8533 -88.5294 76° East 467 537 37,000  Level Chicago Center
Thu 05:51:24 AM 40.8833 -88.3636 76° East 470 541 37,000  Level Chicago Center
Thu 05:52:25 AM 40.9144 -88.1972 76° East 471 542 37,000  Level Chicago Center
Thu 05:53:25 AM 40.9444 -88.0300 77° East 472 543 37,000  Level Chicago Center
Thu 05:54:26 AM 40.9750 -87.8631 76° East 471 542 37,000  Level Chicago Center
Thu 05:55:26 AM 41.0050 -87.6975 76° East 470 541 37,000  Level Chicago Center
Thu 05:56:27 AM 41.0350 -87.5297 77° East 473 544 37,000  Level Chicago Center
Thu 05:57:28 AM 41.0639 -87.3625 77° East 472 543 37,000  Level Chicago Center
Thu 05:58:28 AM 41.1000 -87.1608 77° East 474 545 37,000  Level Chicago Center
Thu 05:59:29 AM 41.1286 -86.9925 77° East 473 544 37,000  Level Chicago Center
Thu 06:00:30 AM 41.1583 -86.8236 77° East 473 544 37,000  Level Chicago Center
Thu 06:01:31 AM 41.1833 -86.6722 78° East 477 549 37,000  Level Chicago Center
Thu 06:02:31 AM 41.2117 -86.5019 77° East 476 548 37,000  Level Chicago Center
Thu 06:03:32 AM 41.2406 -86.3303 77° East 477 549 37,000  Level Chicago Center
Thu 06:04:32 AM 41.2678 -86.1589 78° East 477 549 37,000  Level Chicago Center
Thu 06:05:33 AM 41.3014 -85.9558 78° East 471 542 37,000  Level Chicago Center
Thu 06:06:34 AM 41.3286 -85.7856 78° East 474 545 37,000  Level Chicago Center
Thu 06:07:34 AM 41.3547 -85.6153 78° East 478 550 37,000  Level Chicago Center
Thu 06:08:35 AM 41.3814 -85.4447 78° East 477 549 37,000  Level Chicago Center
Thu 06:09:35 AM 41.4075 -85.2747 78° East 477 549 37,000  Level Chicago Center
Thu 06:10:36 AM 41.4339 -85.1053 78° East 476 548 37,000  Level Chicago Center
Thu 06:11:37 AM 41.4603 -84.9364 78° East 472 543 37,000  Level Chicago Center
Thu 06:12:37 AM 41.4869 -84.7664 78° East 472 543 37,000  Level Chicago Center
Thu 06:13:38 AM 41.5142 -84.5961 78° East 472 543 37,000  Level Chicago Center
Thu 06:14:39 AM 41.5428 -84.4242 77° East 475 547 37,000  Level Chicago Center
Thu 06:15:39 AM 41.5706 -84.2517 78° East 477 549 37,000  Level Chicago Center
Thu 06:16:40 AM 41.6031 -84.0475 78° East 471 542 37,000  Level Chicago Center
Thu 06:17:40 AM 41.6308 -83.8761 78° East 472 543 37,000  Level Chicago Center
Thu 06:18:41 AM 41.6567 -83.7044 79° East 473 544 37,000  Level Chicago Center
Thu 06:19:58 AM 41.6878 -83.4833 79° East 467 537 37,000  Level Cleveland Center
Thu 06:20:58 AM 41.7128 -83.3147 79° East 467 537 37,000  Level Cleveland Center
Thu 06:21:58 AM 41.7394 -83.1433 78° East 467 537 37,000  Level Cleveland Center
Thu 06:22:58 AM 41.7642 -82.9689 79° East 467 537 37,000  Level Cleveland Center
Thu 06:23:58 AM 41.7906 -82.8000 78° East 467 537 37,000  Level Cleveland Center
Thu 06:24:58 AM 41.8144 -82.6308 79° East 467 537 37,000  Level Cleveland Center
Thu 06:25:58 AM 41.8381 -82.4783 78° East 467 537 37,000  Level Cleveland Center
Thu 06:26:58 AM 41.8636 -82.3089 78° East 467 537 37,000  Level Cleveland Center
Thu 06:27:58 AM 41.8869 -82.1339 80° East 467 537 37,000  Level Cleveland Center
Thu 06:28:58 AM 41.9142 -81.9644 78° East 467 537 37,000  Level Cleveland Center
Thu 06:29:58 AM 41.9369 -81.7917 80° East 467 537 37,000  Level Cleveland Center
Thu 06:30:58 AM 41.9594 -81.6192 80° East 467 537 37,000  Level Cleveland Center
Thu 06:31:58 AM 41.9858 -81.4492 78° East 467 537 37,000  Level Cleveland Center
Thu 06:32:58 AM 42.0081 -81.2567 81° East 467 537 37,000  Level Cleveland Center
Thu 06:33:58 AM 42.0319 -81.0836 79° East 467 537 37,000  Level Cleveland Center
Thu 06:34:58 AM 42.0575 -80.9103 79° East 467 537 37,000  Level Cleveland Center
Thu 06:35:58 AM 42.0786 -80.7342 81° East 467 537 37,000  Level Cleveland Center
Thu 06:36:58 AM 42.1017 -80.5553 80° East 472 543 37,000  Level Cleveland Center
Thu 06:37:58 AM 42.1244 -80.3761 80° East 472 543 37,000  Level Cleveland Center
Thu 06:38:58 AM 42.1428 -80.2022 82° East 477 549 37,000  Level Cleveland Center
Thu 06:39:58 AM 42.1669 -80.0228 80° East 477 549 37,000  Level Cleveland Center
Thu 06:40:58 AM 42.1869 -79.8489 81° East 477 549 37,000  Level Cleveland Center
Thu 06:41:58 AM 42.2086 -79.6722 81° East 477 549 37,000  Level Cleveland Center
Thu 06:42:58 AM 42.2300 -79.4953 81° East 477 549 37,000  Level Cleveland Center
Thu 06:43:58 AM 42.2511 -79.3181 81° East 477 549 37,000  Level Cleveland Center
Thu 06:44:58 AM 42.2697 -79.1381 82° East 483 556 37,000  Level Cleveland Center
Thu 06:45:58 AM 42.2925 -78.9581 80° East 488 562 37,000  Level Cleveland Center
Thu 06:46:58 AM 42.3106 -78.7778 82° East 488 562 37,000  Level Cleveland Center
Thu 06:47:58 AM 42.3306 -78.5947 82° East 488 562 37,000  Level Cleveland Center
Thu 06:48:58 AM 42.3522 -78.4114 81° East 488 562 37,000  Level Cleveland Center
Thu 06:49:58 AM 42.3694 -78.2308 83° East 488 562 37,000  Level Cleveland Center
Thu 06:50:58 AM 42.3867 -78.0503 83° East 488 562 37,000  Level Cleveland Center
Thu 06:51:58 AM 42.4075 -77.8667 81° East 488 562 37,000  Level Cleveland Center
Thu 06:52:58 AM 42.4239 -77.6831 83° East 488 562 37,000  Level Cleveland Center
Thu 06:55:18 AM 42.4669 -77.2567 82° East 498 573 37,000  Level Boston Center
Thu 06:56:18 AM 42.4850 -77.0750 82° East 493 567 37,000  Level Boston Center
Thu 06:57:18 AM 42.5006 -76.8931 83° East 493 567 37,000  Level Boston Center
Thu 06:58:18 AM 42.5181 -76.7083 83° East 488 562 37,000  Level Boston Center
Thu 06:59:18 AM 42.5353 -76.5292 83° East 488 562 37,000  Level Boston Center
Thu 07:00:18 AM 42.5397 -76.3406 88° East 488 562 37,000  Level Boston Center
Thu 07:01:18 AM 42.5433 -76.1686 88° East 493 567 37,000  Level Boston Center
Thu 07:02:18 AM 42.5456 -75.9744 89° East 504 580 37,000  Level Boston Center
Thu 07:03:18 AM 42.5492 -75.7856 88° East 504 580 37,000 -50 Level Boston Center
Thu 07:04:18 AM 42.5525 -75.5914 89° East 504 580 36,900 -50 Descending Boston Center
Thu 07:05:18 AM 42.5556 -75.3997 89° East 504 580 36,900 45 Level Boston Center
Thu 07:06:30 AM 42.5564 -75.2053 90° East 510 587 37,000 45 Climbing Boston Center
Thu 07:07:30 AM 42.5597 -74.9769 89° East 510 587 37,000  Level Boston Center
Thu 07:08:30 AM 42.5617 -74.7883 89° East 510 587 37,000 -50 Level Boston Center
Thu 07:09:30 AM 42.5611 -74.5994 90° East 510 587 36,900  Descending Boston Center
Thu 07:10:30 AM 42.5647 -74.4078 88° East 510 587 37,000 -250 Climbing Boston Center
Thu 07:11:30 AM 42.5636 -74.2189 90° East 498 573 36,400 -750 Descending Boston Center
Thu 07:12:30 AM 42.5664 -74.0300 89° East 498 573 35,500 -950 Descending Boston Center
Thu 07:13:30 AM 42.5647 -73.8383 91° East 498 573 34,500 -950 Descending Boston Center
Thu 07:14:30 AM 42.5628 -73.6550 91° East 493 567 33,600 -950 Descending Boston Center
Thu 07:15:30 AM 42.5625 -73.4717 90° East 493 567 32,600 -1,000 Descending Boston Center
Thu 07:16:30 AM 42.5642 -73.2772 89° East 498 573 31,600 -1,200 Descending Boston Center
Thu 07:17:30 AM 42.5611 -73.0883 91° East 503 579 30,200 -2,000 Descending Boston Center
Thu 07:18:30 AM 42.5600 -72.9022 90° East 498 573 27,600 -2,227 Descending Boston Center
Thu 07:19:42 AM 42.5542 -72.7247 92° East 487 560 25,300 -2,273 Descending Boston Center
Thu 07:20:42 AM 42.5525 -72.5078 91° East 477 549 22,600 -2,273 Descending Boston Center
Thu 07:21:54 AM 42.5503 -72.3386 91° East 457 526 20,300 -2,227 Descending Boston Center
Thu 07:22:54 AM 42.5458 -72.1331 92° East 421 484 17,700 -2,455 Descending Boston Center
Thu 07:24:06 AM 42.5347 -71.9442 95° East 421 484 14,900 -2,182 Descending Boston Center
Thu 07:25:06 AM 42.5217 -71.8092 97° East 414 476 12,900 -1,850 Descending Boston Center
Thu 07:26:06 AM 42.5081 -71.6486 97° East 392 451 11,200 -1,314 Descending Boston Center
Thu 07:26:51 AM 42.5000 -71.5500 96° East 346 398 10,600 -818 Descending KA90
Thu 07:27:56 AM 42.4833 -71.4167 100° East 307 353 9,700 -800 Descending KA90
Thu 07:28:51 AM 42.4833 -71.3167 90° East 305 351 9,000 -750 Descending KA90
Thu 07:29:56 AM 42.4667 -71.2000 101° East 297 342 8,200 -720 Descending KA90
Thu 07:30:56 AM 42.4500 -71.1000 103° East 262 302 7,500 -694 Descending KA90
Thu 07:31:57 AM 42.4333 -71.0000 103° East 242 278 6,800 -678 Descending KA90
Thu 07:32:51 AM 42.4000 -70.9500 132° Southeast 236 272 6,200 -706 Descending KA90
Thu 07:33:56 AM 42.3667 -70.8667 118° Southeast 234 269 5,400 -576 Descending KA90
Thu 07:34:56 AM 42.3333 -70.8000 124° Southeast 207 238 5,000 -200 Descending KA90
Thu 07:35:56 AM 42.2833 -70.7500 143° Southeast 209 241 5,000  Level KA90
Thu 07:36:51 AM 42.2500 -70.7000 132° Southeast 209 241 5,000  Level KA90
Thu 07:37:51 AM 42.2000 -70.6500 143° Southeast 206 237 5,000  Level KA90
Thu 07:38:56 AM 42.1833 -70.7167 251° West 202 232 5,000 -480 Level KA90
Thu 07:39:56 AM 42.2000 -70.7667 294° West 185 213 4,000 -952 Descending KA90
Thu 07:41:02 AM 42.2333 -70.8333 304° West 179 206 3,000 -909 Descending KA90

Login

Don't have an account? Register now (free) for customized features, flight alerts, and more!